createdAt,value
2023-09-20T00:01:24.613Z,16.64
2023-09-20T00:03:57.582Z,17.06
2023-09-20T00:06:30.403Z,16.74
2023-09-20T00:09:04.317Z,16.68
2023-09-20T00:11:42.531Z,16.72
2023-09-20T00:14:18.754Z,16.71
2023-09-20T00:16:54.555Z,16.68
2023-09-20T00:19:28.471Z,16.57
2023-09-20T00:22:02.216Z,16.77
2023-09-20T00:24:36.986Z,16.93
2023-09-20T00:27:14.955Z,16.83
2023-09-20T00:29:48.250Z,16.96
2023-09-20T00:32:22.396Z,16.89
2023-09-20T00:34:55.405Z,16.79
2023-09-20T00:37:33.117Z,16.82
2023-09-20T00:40:09.061Z,16.76
2023-09-20T00:42:45.796Z,16.82
2023-09-20T00:45:19.383Z,16.79
2023-09-20T00:48:04.798Z,16.93
2023-09-20T00:50:45.280Z,16.79
2023-09-20T00:53:19.255Z,16.79
2023-09-20T00:55:53.645Z,16.77
2023-09-20T00:58:31.562Z,16.74
2023-09-20T01:01:06.118Z,16.80
2023-09-20T01:03:44.361Z,16.81
2023-09-20T01:06:22.102Z,16.78
2023-09-20T01:08:58.957Z,16.82
2023-09-20T01:11:34.342Z,16.71
2023-09-20T01:14:13.772Z,16.69
2023-09-20T01:16:47.300Z,16.75
2023-09-20T01:19:20.976Z,16.78
2023-09-20T01:21:57.017Z,16.64
2023-09-20T01:24:34.927Z,16.75
2023-09-20T01:27:11.048Z,16.72
2023-09-20T01:29:49.206Z,16.64
2023-09-20T01:32:22.573Z,16.69
2023-09-20T01:34:57.930Z,16.62
2023-09-20T01:37:33.968Z,16.32
2023-09-20T01:40:17.521Z,16.38
2023-09-20T01:42:52.285Z,16.56
2023-09-20T01:45:29.126Z,16.48
2023-09-20T01:48:08.646Z,16.57
2023-09-20T01:50:43.672Z,16.83
2023-09-20T01:53:19.766Z,16.52
2023-09-20T01:55:52.945Z,16.53
2023-09-20T01:58:37.997Z,16.45
2023-09-20T02:01:13.814Z,16.48
2023-09-20T02:03:55.143Z,16.29
2023-09-20T02:06:28.321Z,16.31
2023-09-20T02:09:05.238Z,16.52
2023-09-20T02:11:38.523Z,16.43
2023-09-20T02:14:13.259Z,16.42
2023-09-20T02:16:46.253Z,16.59
2023-09-20T02:19:21.587Z,16.59
2023-09-20T02:21:54.968Z,16.60
2023-09-20T02:24:30.530Z,16.76
2023-09-20T02:27:05.146Z,16.75
2023-09-20T02:29:37.859Z,16.75
2023-09-20T02:32:11.409Z,16.69
2023-09-20T02:34:45.028Z,16.66
2023-09-20T02:37:18.785Z,16.62
2023-09-20T02:39:54.387Z,16.61
2023-09-20T02:42:30.461Z,16.57
2023-09-20T02:45:05.023Z,16.71
2023-09-20T02:47:38.486Z,16.73
2023-09-20T02:50:13.959Z,16.68
2023-09-20T02:52:48.394Z,16.64
2023-09-20T02:55:26.331Z,16.71
2023-09-20T02:57:59.320Z,16.80
2023-09-20T03:00:52.433Z,16.77
2023-09-20T03:03:27.344Z,16.74
2023-09-20T03:06:00.892Z,16.86
2023-09-20T03:08:35.261Z,16.96
2023-09-20T03:11:11.833Z,17.06
2023-09-20T03:13:45.569Z,16.88
2023-09-20T03:16:22.919Z,16.92
2023-09-20T03:18:58.458Z,16.90
2023-09-20T03:21:31.490Z,16.81
2023-09-20T03:24:07.457Z,16.75
2023-09-20T03:26:43.805Z,16.90
2023-09-20T03:29:19.701Z,16.81
2023-09-20T03:31:52.791Z,16.88
2023-09-20T03:34:26.053Z,16.93
2023-09-20T03:36:59.251Z,16.77
2023-09-20T03:39:32.644Z,16.86
2023-09-20T03:42:09.224Z,16.86
2023-09-20T03:44:43.710Z,16.70
2023-09-20T03:47:16.608Z,16.62
2023-09-20T03:49:50.892Z,16.61
2023-09-20T03:52:23.639Z,16.38
2023-09-20T03:54:56.737Z,16.26
2023-09-20T03:57:32.092Z,16.53
2023-09-20T04:00:10.946Z,16.32
2023-09-20T04:02:46.160Z,16.34
2023-09-20T04:05:30.475Z,16.36
2023-09-20T04:08:13.040Z,16.34
2023-09-20T04:10:46.218Z,16.48
2023-09-20T04:13:21.586Z,16.35
2023-09-20T04:15:54.514Z,16.35
2023-09-20T04:18:27.882Z,16.17
2023-09-20T04:21:01.431Z,16.32
2023-09-20T04:23:34.873Z,16.27
2023-09-20T04:26:08.050Z,16.44
2023-09-20T04:28:44.582Z,16.36
2023-09-20T04:31:17.675Z,16.44
2023-09-20T04:33:51.156Z,16.38
2023-09-20T04:36:24.384Z,16.29
2023-09-20T04:38:57.806Z,16.16
2023-09-20T04:41:30.534Z,16.24
2023-09-20T04:44:07.476Z,16.26
2023-09-20T04:46:41.047Z,16.20
2023-09-20T04:49:14.642Z,15.80
2023-09-20T04:51:48.341Z,15.90
2023-09-20T04:54:21.989Z,15.91
2023-09-20T04:56:55.093Z,16.04
2023-09-20T04:59:30.793Z,16.21
2023-09-20T05:02:04.844Z,16.30
2023-09-20T05:04:38.237Z,16.44
2023-09-20T05:07:11.701Z,16.36
2023-09-20T05:09:44.223Z,16.33
2023-09-20T05:12:17.177Z,16.34
2023-09-20T05:14:53.665Z,16.33
2023-09-20T05:17:26.330Z,16.33
2023-09-20T05:20:00.159Z,16.32
2023-09-20T05:22:33.843Z,16.39
2023-09-20T05:25:09.582Z,16.37
2023-09-20T05:27:42.506Z,16.40
2023-09-20T05:30:18.157Z,16.45
2023-09-20T05:32:53.928Z,16.51
2023-09-20T05:35:28.019Z,16.55
2023-09-20T05:38:01.629Z,16.59
2023-09-20T05:40:34.984Z,16.66
2023-09-20T05:43:08.774Z,16.82
2023-09-20T05:45:44.901Z,16.83
2023-09-20T05:48:18.294Z,16.82
2023-09-20T05:50:51.794Z,16.83
2023-09-20T05:53:25.029Z,16.87
2023-09-20T05:55:57.851Z,16.89
2023-09-20T05:58:31.834Z,16.95
2023-09-20T06:01:09.808Z,16.94
2023-09-20T06:03:43.146Z,17.03
2023-09-20T06:06:16.172Z,17.09
2023-09-20T06:08:49.163Z,17.33
2023-09-20T06:11:22.501Z,17.40
2023-09-20T06:13:55.787Z,17.36
2023-09-20T06:16:31.044Z,17.53
2023-09-20T06:19:08.082Z,17.55
2023-09-20T06:21:44.977Z,17.77
2023-09-20T06:24:21.467Z,17.87
2023-09-20T06:26:54.553Z,17.96
2023-09-20T06:29:27.236Z,18.14
2023-09-20T06:32:03.466Z,18.09
2023-09-20T06:34:42.984Z,18.17
2023-09-20T06:37:24.663Z,18.02
2023-09-20T06:39:59.299Z,18.05
2023-09-20T06:42:32.972Z,18.12
2023-09-20T06:45:08.734Z,18.04
2023-09-20T06:47:45.613Z,18.20
2023-09-20T06:50:19.188Z,18.35
2023-09-20T06:52:52.971Z,18.35
2023-09-20T06:55:27.082Z,18.37
2023-09-20T06:58:13.566Z,18.59
2023-09-20T07:00:54.156Z,18.95
2023-09-20T07:03:29.811Z,19.03
2023-09-20T07:06:04.525Z,19.29
2023-09-20T07:08:40.960Z,19.47
2023-09-20T07:11:23.667Z,19.59
2023-09-20T07:14:01.207Z,19.71
2023-09-20T07:16:35.665Z,20.04
2023-09-20T07:19:21.442Z,20.35
2023-09-20T07:21:56.409Z,20.61
2023-09-20T07:24:34.665Z,20.66
2023-09-20T07:27:11.297Z,20.71
2023-09-20T07:29:47.629Z,20.99
2023-09-20T07:32:21.134Z,21.05
2023-09-20T07:35:02.252Z,21.08
2023-09-20T07:37:42.492Z,21.33
2023-09-20T07:40:16.173Z,21.52
2023-09-20T07:42:51.576Z,21.69
2023-09-20T07:45:25.733Z,21.47
2023-09-20T07:48:02.566Z,21.47
2023-09-20T07:50:39.118Z,21.59
2023-09-20T07:53:15.809Z,21.69
2023-09-20T07:56:02.363Z,21.94
2023-09-20T07:58:45.510Z,21.99
2023-09-20T08:01:24.241Z,22.02
2023-09-20T08:04:08.065Z,21.68
2023-09-20T08:06:43.880Z,22.06
2023-09-20T08:09:16.456Z,22.33
2023-09-20T08:11:48.818Z,21.89
2023-09-20T08:14:21.966Z,22.01
2023-09-20T08:17:07.050Z,22.28
2023-09-20T08:19:40.829Z,22.34
2023-09-20T08:22:18.975Z,22.25
2023-09-20T08:25:03.491Z,22.74
2023-09-20T08:27:47.768Z,23.70
2023-09-20T08:30:34.154Z,24.25
2023-09-20T08:33:18.378Z,24.31
2023-09-20T08:36:02.699Z,23.91
2023-09-20T08:38:49.374Z,24.06
2023-09-20T08:41:33.745Z,23.91
2023-09-20T08:44:17.766Z,23.81
2023-09-20T08:47:03.816Z,23.56
2023-09-20T08:49:50.812Z,23.64
2023-09-20T08:52:37.262Z,24.21
2023-09-20T08:55:26.738Z,24.32
2023-09-20T08:58:13.458Z,25.09
2023-09-20T09:00:52.130Z,25.65
2023-09-20T09:03:25.562Z,25.78
2023-09-20T09:06:02.313Z,26.17
2023-09-20T09:08:36.089Z,26.55
2023-09-20T09:11:11.509Z,26.76
2023-09-20T09:13:44.648Z,26.58
2023-09-20T09:16:20.555Z,26.18
2023-09-20T09:18:54.484Z,25.57
2023-09-20T09:21:27.014Z,25.47
2023-09-20T09:23:59.408Z,24.36
2023-09-20T09:26:34.552Z,23.76
2023-09-20T09:29:07.187Z,23.98
2023-09-20T09:31:39.699Z,24.61
2023-09-20T09:34:12.873Z,24.24
2023-09-20T09:36:46.091Z,23.88
2023-09-20T09:39:33.792Z,23.95
2023-09-20T09:42:46.012Z,24.36
2023-09-20T09:45:38.667Z,24.03
2023-09-20T09:48:12.118Z,23.73
2023-09-20T09:50:46.981Z,23.75
2023-09-20T09:53:22.800Z,23.57
2023-09-20T09:55:56.341Z,23.88
2023-09-20T09:58:31.022Z,24.11
2023-09-20T10:01:07.290Z,24.33
2023-09-20T10:03:44.594Z,24.76
2023-09-20T10:06:26.619Z,25.51
2023-09-20T10:08:59.974Z,25.97
2023-09-20T10:11:32.966Z,25.85
2023-09-20T10:14:12.549Z,26.10
2023-09-20T10:16:46.461Z,26.81
2023-09-20T10:19:20.187Z,26.95
2023-09-20T10:22:12.267Z,26.95
2023-09-20T10:25:00.574Z,27.33
2023-09-20T10:27:36.423Z,26.81
2023-09-20T10:30:17.491Z,26.13
2023-09-20T10:36:12.146Z,25.99
2023-09-20T10:38:48.465Z,26.62
2023-09-20T10:41:47.053Z,27.03
2023-09-20T10:44:42.740Z,28.00
2023-09-20T10:47:22.544Z,28.22
2023-09-20T10:49:58.857Z,28.54
2023-09-20T10:53:01.104Z,28.77
2023-09-20T10:55:42.662Z,29.28
2023-09-20T10:58:20.129Z,29.17
2023-09-20T11:00:55.806Z,28.74
2023-09-20T11:03:33.759Z,27.96
2023-09-20T11:06:09.567Z,28.17
2023-09-20T11:08:43.042Z,28.60
2023-09-20T11:11:29.521Z,28.31
2023-09-20T11:14:05.453Z,28.02
2023-09-20T11:16:43.330Z,27.61
2023-09-20T11:19:22.211Z,27.45
2023-09-20T11:21:57.460Z,27.15
2023-09-20T11:24:30.815Z,27.34
2023-09-20T11:27:04.166Z,27.44
2023-09-20T11:29:42.375Z,27.27
2023-09-20T11:32:25.976Z,26.75
2023-09-20T11:35:08.673Z,26.18
2023-09-20T11:37:41.233Z,25.36
2023-09-20T11:40:15.230Z,25.50
2023-09-20T11:42:50.145Z,25.47
2023-09-20T11:45:40.685Z,25.86
2023-09-20T11:48:17.206Z,26.22
2023-09-20T11:50:52.930Z,26.60
2023-09-20T11:53:25.619Z,26.91
2023-09-20T11:55:59.148Z,27.03
2023-09-20T11:58:38.504Z,26.53
2023-09-20T12:01:12.196Z,26.26
2023-09-20T12:03:50.869Z,25.81
2023-09-20T12:06:26.588Z,26.34
2023-09-20T12:09:01.708Z,26.58
2023-09-20T12:11:37.430Z,25.36
2023-09-20T12:14:15.840Z,25.68
2023-09-20T12:16:49.902Z,25.82
2023-09-20T12:19:24.688Z,25.58
2023-09-20T12:22:02.541Z,25.48
2023-09-20T12:24:35.595Z,25.94
2023-09-20T12:27:12.924Z,26.02
2023-09-20T12:29:45.657Z,25.82
2023-09-20T12:32:19.114Z,25.82
2023-09-20T12:34:53.637Z,25.91
2023-09-20T12:37:29.524Z,26.02
2023-09-20T12:43:07.821Z,25.62
2023-09-20T12:45:43.019Z,25.74
2023-09-20T12:48:16.647Z,25.86
2023-09-20T12:50:50.070Z,26.08
2023-09-20T12:53:27.228Z,26.22
2023-09-20T12:56:02.609Z,26.36
2023-09-20T12:58:35.989Z,25.99
2023-09-20T13:01:11.703Z,26.32
2023-09-20T13:03:46.063Z,26.50
2023-09-20T13:06:19.642Z,26.47
2023-09-20T13:08:57.661Z,26.61
2023-09-20T13:11:30.454Z,26.29
2023-09-20T13:14:03.805Z,26.34
2023-09-20T13:16:37.431Z,26.16
2023-09-20T13:19:10.910Z,25.99
2023-09-20T13:21:46.482Z,25.82
2023-09-20T13:24:21.890Z,25.83
2023-09-20T13:26:54.863Z,25.56
2023-09-20T13:29:29.894Z,25.75
2023-09-20T13:32:04.681Z,25.77
2023-09-20T13:34:40.047Z,25.81
2023-09-20T13:37:19.921Z,25.73
2023-09-20T13:39:56.418Z,26.00
2023-09-20T13:42:30.604Z,26.05
2023-09-20T13:45:05.903Z,26.10
2023-09-20T13:47:41.704Z,26.22
2023-09-20T13:50:15.485Z,26.27
2023-09-20T13:52:49.023Z,26.03
2023-09-20T13:55:36.015Z,26.15
2023-09-20T13:58:09.817Z,25.95
2023-09-20T14:00:43.562Z,25.88
2023-09-20T14:03:18.147Z,25.83
2023-09-20T14:05:52.757Z,25.60
2023-09-20T14:08:26.051Z,25.57
2023-09-20T14:11:01.826Z,25.51
2023-09-20T14:13:35.105Z,25.54
2023-09-20T14:16:10.819Z,25.47
2023-09-20T14:18:46.341Z,25.36
2023-09-20T14:21:19.570Z,25.36
2023-09-20T14:23:52.786Z,25.44
2023-09-20T14:26:29.804Z,25.44
2023-09-20T14:29:09.043Z,25.65
2023-09-20T14:31:52.099Z,25.83
2023-09-20T14:34:25.266Z,25.93
2023-09-20T14:36:58.980Z,26.04
2023-09-20T14:39:35.818Z,26.05
2023-09-20T14:42:13.819Z,26.09
2023-09-20T14:45:20.449Z,26.16
2023-09-20T14:47:55.923Z,26.20
2023-09-20T14:50:30.733Z,26.29
2023-09-20T14:53:06.780Z,26.27
2023-09-20T14:55:43.991Z,26.17
2023-09-20T14:58:20.909Z,25.87
2023-09-20T15:00:55.101Z,25.90
2023-09-20T15:03:30.599Z,25.90
2023-09-20T15:06:04.314Z,25.74
2023-09-20T15:08:49.577Z,25.44
2023-09-20T15:12:08.495Z,25.45
2023-09-20T15:14:50.715Z,25.49
2023-09-20T15:17:30.544Z,25.41
2023-09-20T15:20:15.684Z,25.32
2023-09-20T15:22:58.689Z,25.20
2023-09-20T15:25:31.693Z,25.26
2023-09-20T15:28:05.011Z,25.29
2023-09-20T15:30:41.695Z,25.20
2023-09-20T15:33:20.533Z,25.30
2023-09-20T15:35:55.392Z,25.38
2023-09-20T15:38:29.508Z,25.40
2023-09-20T15:41:05.979Z,25.50
2023-09-20T15:43:43.574Z,25.39
2023-09-20T15:46:20.857Z,25.40
2023-09-20T15:48:57.474Z,25.49
2023-09-20T15:51:31.616Z,25.36
2023-09-20T15:54:08.300Z,25.30
2023-09-20T15:56:42.681Z,25.39
2023-09-20T15:59:15.628Z,25.29
2023-09-20T16:01:52.173Z,25.18
2023-09-20T16:04:25.359Z,25.06
2023-09-20T16:06:58.358Z,25.00
2023-09-20T16:09:31.587Z,25.06
2023-09-20T16:12:04.561Z,25.02
2023-09-20T16:14:40.743Z,24.94
2023-09-20T16:17:17.027Z,24.85
2023-09-20T16:19:50.635Z,24.54
2023-09-20T16:22:25.036Z,24.66
2023-09-20T16:25:14.275Z,24.60
2023-09-20T16:28:19.417Z,24.44
2023-09-20T16:30:58.787Z,24.46
2023-09-20T16:33:37.724Z,24.36
2023-09-20T16:37:00.003Z,24.33
2023-09-20T16:39:32.974Z,24.31
2023-09-20T16:42:08.833Z,24.36
2023-09-20T16:44:43.626Z,24.29
2023-09-20T16:47:17.067Z,24.21
2023-09-20T16:49:58.254Z,24.19
2023-09-20T16:52:38.376Z,24.09
2023-09-20T16:55:12.475Z,23.96
2023-09-20T16:57:55.659Z,23.83
2023-09-20T17:00:32.038Z,23.83
2023-09-20T17:03:05.968Z,23.65
2023-09-20T17:05:57.227Z,23.67
2023-09-20T17:08:32.831Z,23.53
2023-09-20T17:11:05.945Z,23.41
2023-09-20T17:13:44.389Z,23.36
2023-09-20T17:16:32.999Z,23.31
2023-09-20T17:19:08.429Z,23.15
2023-09-20T17:21:47.456Z,23.27
2023-09-20T17:24:22.771Z,23.29
2023-09-20T17:26:57.193Z,23.27
2023-09-20T17:29:31.899Z,23.24
2023-09-20T17:32:08.330Z,23.11
2023-09-20T17:37:37.503Z,23.15
2023-09-20T17:40:12.171Z,23.14
2023-09-20T17:42:45.718Z,23.05
2023-09-20T17:45:20.265Z,22.92
2023-09-20T17:47:53.298Z,22.72
2023-09-20T17:50:29.213Z,22.74
2023-09-20T17:53:05.039Z,22.70
2023-09-20T17:55:43.980Z,22.64
2023-09-20T18:02:02.119Z,22.67
2023-09-20T18:04:44.980Z,22.61
2023-09-20T18:10:25.512Z,22.46
2023-09-20T18:13:04.995Z,22.44
2023-09-20T18:16:16.761Z,22.33
2023-09-20T18:18:55.641Z,22.20
2023-09-20T18:21:27.877Z,22.15
2023-09-20T18:24:01.742Z,22.09
2023-09-20T18:26:36.693Z,22.02
2023-09-20T18:29:09.889Z,21.98
2023-09-20T18:31:51.748Z,21.87
2023-09-20T18:34:29.844Z,21.77
2023-09-20T18:37:21.531Z,21.73
2023-09-20T18:40:10.128Z,21.68
2023-09-20T18:42:47.934Z,21.61
2023-09-20T18:45:20.802Z,21.42
2023-09-20T18:47:55.732Z,21.42
2023-09-20T18:50:30.953Z,21.47
2023-09-20T18:53:07.871Z,21.46
2023-09-20T18:55:41.915Z,21.54
2023-09-20T18:58:31.809Z,21.63
2023-09-20T19:01:18.063Z,21.65
2023-09-20T19:03:51.701Z,21.67
2023-09-20T19:06:31.316Z,21.64
2023-09-20T19:09:05.371Z,21.47
2023-09-20T19:11:38.211Z,21.42
2023-09-20T19:14:13.702Z,21.35
2023-09-20T19:16:46.742Z,21.17
2023-09-20T19:19:44.142Z,21.18
2023-09-20T19:22:19.476Z,21.11
2023-09-20T19:24:55.032Z,20.99
2023-09-20T19:27:28.234Z,20.91
2023-09-20T19:30:06.798Z,20.87
2023-09-20T19:32:40.242Z,20.84
2023-09-20T19:35:24.628Z,20.75
2023-09-20T19:37:57.499Z,20.66
2023-09-20T19:40:29.855Z,20.67
2023-09-20T19:43:02.498Z,20.62
2023-09-20T19:45:43.716Z,20.60
2023-09-20T19:48:22.618Z,20.68
2023-09-20T19:50:55.142Z,20.64
2023-09-20T19:53:30.556Z,20.75
2023-09-20T19:56:03.193Z,20.78
2023-09-20T19:58:36.037Z,20.85
2023-09-20T20:01:11.190Z,20.92
2023-09-20T20:04:02.258Z,20.98
2023-09-20T20:06:37.721Z,21.02
2023-09-20T20:09:10.630Z,21.06
2023-09-20T20:11:44.460Z,21.04
2023-09-20T20:14:17.302Z,20.99
2023-09-20T20:16:52.494Z,21.02
2023-09-20T20:19:25.301Z,21.03
2023-09-20T20:22:21.199Z,21.00
2023-09-20T20:24:54.636Z,21.01
2023-09-20T20:27:27.328Z,20.87
2023-09-20T20:30:00.779Z,20.86
2023-09-20T20:32:43.755Z,20.87
2023-09-20T20:35:16.670Z,20.90
2023-09-20T20:37:49.865Z,20.84
2023-09-20T20:40:22.807Z,20.77
2023-09-20T20:42:56.722Z,20.78
2023-09-20T20:45:30.046Z,20.75
2023-09-20T20:48:05.728Z,20.68
2023-09-20T20:50:39.563Z,20.54
2023-09-20T20:53:16.813Z,20.60
2023-09-20T20:55:49.468Z,20.57
2023-09-20T20:58:25.494Z,20.49
2023-09-20T21:00:59.344Z,20.46
2023-09-20T21:03:35.829Z,20.29
2023-09-20T21:06:09.185Z,20.25
2023-09-20T21:08:43.960Z,20.24
2023-09-20T21:11:18.186Z,20.17
2023-09-20T21:13:50.819Z,20.20
2023-09-20T21:16:25.263Z,20.30
2023-09-20T21:19:01.082Z,20.32
2023-09-20T21:21:33.618Z,20.41
2023-09-20T21:24:06.238Z,20.30
2023-09-20T21:26:38.818Z,20.32
2023-09-20T21:29:11.275Z,20.32
2023-09-20T21:31:44.005Z,20.33
2023-09-20T21:34:18.929Z,20.20
2023-09-20T21:36:51.487Z,20.14
2023-09-20T21:39:23.641Z,20.17
2023-09-20T21:41:56.409Z,20.10
2023-09-20T21:44:28.587Z,20.01
2023-09-20T21:47:01.151Z,19.99
2023-09-20T21:49:36.002Z,19.92
2023-09-20T21:52:08.971Z,19.92
2023-09-20T21:54:41.255Z,19.77
2023-09-20T21:57:13.752Z,19.76
2023-09-20T21:59:45.683Z,19.74
2023-09-20T22:02:18.295Z,19.69
2023-09-20T22:04:53.605Z,19.77
2023-09-20T22:07:26.375Z,19.81
2023-09-20T22:09:58.615Z,19.74
2023-09-20T22:12:32.502Z,19.77
2023-09-20T22:15:04.798Z,19.86
2023-09-20T22:17:38.232Z,19.87
2023-09-20T22:20:20.244Z,19.88
2023-09-20T22:22:54.764Z,19.85
2023-09-20T22:25:32.153Z,19.81
2023-09-20T22:28:07.274Z,19.78
2023-09-20T22:30:43.698Z,19.75
2023-09-20T22:33:19.749Z,19.63
2023-09-20T22:36:08.096Z,19.47
2023-09-20T22:38:51.280Z,19.57
2023-09-20T22:41:25.978Z,19.66
2023-09-20T22:44:02.145Z,19.66
2023-09-20T22:46:38.877Z,19.77
2023-09-20T22:49:16.100Z,19.70
2023-09-20T22:51:54.411Z,19.66
2023-09-20T22:54:29.544Z,19.58
2023-09-20T22:57:04.912Z,19.73
2023-09-20T22:59:42.189Z,19.36
2023-09-20T23:02:23.456Z,19.35
2023-09-20T23:04:58.278Z,19.28
2023-09-20T23:07:34.035Z,19.22
2023-09-20T23:10:13.857Z,19.23
2023-09-20T23:12:46.994Z,19.16
2023-09-20T23:15:21.655Z,19.18
2023-09-20T23:17:58.765Z,19.14
2023-09-20T23:20:39.483Z,19.08
2023-09-20T23:23:19.039Z,19.16
2023-09-20T23:25:54.605Z,19.10
2023-09-20T23:28:29.491Z,19.10
2023-09-20T23:31:06.304Z,19.15
2023-09-20T23:33:41.249Z,19.15
2023-09-20T23:36:21.435Z,19.22
2023-09-20T23:38:58.993Z,19.23
2023-09-20T23:41:34.056Z,19.22
2023-09-20T23:44:31.362Z,19.12
2023-09-20T23:47:19.148Z,19.13
2023-09-20T23:49:56.235Z,19.18
2023-09-20T23:52:31.146Z,19.25
2023-09-20T23:55:07.615Z,19.32
2023-09-20T23:57:42.624Z,19.25
